Time;durP1;ratioP1;P1;durP2;ratioP2;P2;SDS_P1;SDS_P2;PMS_P1;PMS_P2;Temp;Humidity;BMP_temperature;BMP_pressure;BME280_temperature;BME280_humidity;BME280_pressure;Samples;Min_cycle;Max_cycle;Signal;HPM_P1;HPM_P2
2022/11/15 00:00:19;;;;;;;22.42;15.95;;;7.80;78.10;;;;;;5072089;28;20139;-73
2022/11/15 00:02:45;;;;;;;23.55;17.58;;;7.70;78.20;;;;;;5091843;28;20118;-73
2022/11/15 00:05:11;;;;;;;24.00;16.92;;;7.80;78.30;;;;;;5070064;28;20044;-73
2022/11/15 00:07:36;;;;;;;24.85;17.52;;;7.80;78.40;;;;;;5074384;28;20464;-84
2022/11/15 00:10:03;;;;;;;26.58;18.80;;;7.80;78.40;;;;;;5060774;28;20499;-84
2022/11/15 00:12:29;;;;;;;24.77;16.90;;;7.80;78.50;;;;;;5079222;28;20078;-83
2022/11/15 00:14:54;;;;;;;23.48;18.25;;;7.80;78.50;;;;;;5073801;28;20174;-84
2022/11/15 00:17:20;;;;;;;28.13;19.15;;;7.80;78.40;;;;;;5056873;28;20040;-82
2022/11/15 00:19:46;;;;;;;29.25;21.20;;;7.80;78.40;;;;;;5073391;28;20048;-84
2022/11/15 00:22:12;;;;;;;25.88;19.20;;;7.90;78.40;;;;;;5056731;28;20036;-83
2022/11/15 00:24:37;;;;;;;26.40;20.10;;;7.80;78.20;;;;;;5073390;28;20076;-83
2022/11/15 00:27:03;;;;;;;28.10;20.50;;;7.90;78.20;;;;;;5056812;28;20043;-84
2022/11/15 00:29:28;;;;;;;27.15;20.17;;;7.90;78.20;;;;;;5073385;28;20040;-84
2022/11/15 00:31:54;;;;;;;30.58;21.98;;;7.90;78.10;;;;;;5078924;28;20036;-83
2022/11/15 00:34:20;;;;;;;29.55;21.42;;;7.90;78.10;;;;;;5094390;28;20131;-82
2022/11/15 00:36:45;;;;;;;27.23;20.00;;;7.90;78.00;;;;;;5078376;28;20044;-84
2022/11/15 00:39:11;;;;;;;28.80;19.95;;;7.90;78.00;;;;;;5044025;28;20039;-84
2022/11/15 00:41:37;;;;;;;24.85;20.25;;;7.90;78.00;;;;;;5093617;28;20040;-84
2022/11/15 00:44:02;;;;;;;27.17;20.50;;;7.90;78.00;;;;;;5093174;28;20395;-83
2022/11/15 00:46:28;;;;;;;28.38;20.42;;;7.90;78.00;;;;;;5076193;28;20403;-86
2022/11/15 00:48:54;;;;;;;27.42;19.70;;;7.90;77.90;;;;;;5093087;28;20044;-82
2022/11/15 00:51:19;;;;;;;29.75;20.05;;;7.90;77.80;;;;;;5076260;28;20066;-81
2022/11/15 00:53:45;;;;;;;26.90;19.88;;;7.90;77.70;;;;;;5093011;28;20044;-81
2022/11/15 00:56:11;;;;;;;28.75;20.80;;;8.00;77.80;;;;;;5059486;28;20078;-81
2022/11/15 00:58:36;;;;;;;27.45;19.55;;;7.90;77.70;;;;;;5093171;28;20102;-82
2022/11/15 01:01:13;;;;;;;28.05;19.75;;;8.00;77.70;;;;;;5076359;28;20104;-82
2022/11/15 01:03:41;;;;;;;26.33;19.70;;;8.00;77.80;;;;;;5071635;28;20511;-81
2022/11/15 01:06:08;;;;;;;26.38;19.55;;;7.90;77.80;;;;;;5055957;28;20400;-82
2022/11/15 01:08:34;;;;;;;27.35;19.20;;;8.00;77.90;;;;;;5072586;28;20044;-81
2022/11/15 01:11:06;;;;;;;26.17;17.63;;;7.90;77.80;;;;;;5072312;28;20029;-81
2022/11/15 01:13:33;;;;;;;28.40;18.83;;;7.90;77.80;;;;;;5072732;28;20055;-82
2022/11/15 01:16:11;;;;;;;26.92;18.52;;;8.00;77.80;;;;;;5078592;28;20495;-83
2022/11/15 01:18:37;;;;;;;24.95;17.63;;;8.00;77.80;;;;;;5077504;28;20121;-83
2022/11/15 01:21:21;;;;;;;25.90;18.80;;;8.00;77.90;;;;;;5092600;28;20040;-83
2022/11/15 01:23:47;;;;;;;27.35;17.88;;;8.00;77.90;;;;;;5075696;28;20040;-83
2022/11/15 01:26:14;;;;;;;23.77;17.40;;;8.00;78.00;;;;;;5059035;28;20398;-83
2022/11/15 01:28:41;;;;;;;25.65;17.83;;;8.00;78.10;;;;;;5075804;28;20036;-83
2022/11/15 01:31:19;;;;;;;23.83;17.40;;;8.10;78.00;;;;;;5092387;28;20509;-83
2022/11/15 01:33:45;;;;;;;27.70;18.80;;;8.10;78.10;;;;;;5092398;28;20040;-83
2022/11/15 01:36:13;;;;;;;25.95;18.65;;;8.10;78.10;;;;;;5092393;28;20449;-83
2022/11/15 01:38:39;;;;;;;25.33;17.17;;;8.10;78.00;;;;;;5075763;28;20066;-82
2022/11/15 01:41:05;;;;;;;28.27;18.65;;;8.10;78.00;;;;;;5059119;28;20044;-83
2022/11/15 01:43:36;;;;;;;25.30;17.70;;;8.10;78.00;;;;;;5092467;28;20480;-83
2022/11/15 01:46:30;;;;;;;29.67;19.10;;;8.20;78.10;;;;;;5092162;28;20135;-82
2022/11/15 01:49:00;;;;;;;28.13;18.95;;;8.20;78.10;;;;;;5088800;28;20091;-83
2022/11/15 01:51:29;;;;;;;28.17;19.23;;;8.10;78.00;;;;;;5055223;28;20041;-83
2022/11/15 01:54:01;;;;;;;27.58;19.05;;;8.20;78.10;;;;;;5088538;28;20436;-83
2022/11/15 01:56:31;;;;;;;28.33;19.75;;;8.20;78.10;;;;;;5089245;28;20036;-83
2022/11/15 01:59:00;;;;;;;27.20;18.95;;;8.20;78.10;;;;;;5075143;28;20090;-83
2022/11/15 02:01:28;;;;;;;31.33;21.35;;;8.30;78.20;;;;;;5091925;28;20042;-82
2022/11/15 02:04:00;;;;;;;29.98;19.95;;;8.20;78.20;;;;;;5092141;28;20040;-83
2022/11/15 02:06:26;;;;;;;28.13;19.15;;;8.20;78.20;;;;;;5075485;28;20391;-82
2022/11/15 02:08:53;;;;;;;26.00;18.27;;;8.20;78.10;;;;;;5075309;28;20040;-83
2022/11/15 02:11:19;;;;;;;27.60;19.55;;;8.20;78.20;;;;;;5068773;28;20029;-83
2022/11/15 02:13:45;;;;;;;27.50;19.55;;;8.20;78.30;;;;;;5055175;28;20149;-82
2022/11/15 02:16:35;;;;;;;31.05;20.60;;;8.20;78.30;;;;;;5071669;28;20076;-83
2022/11/15 02:19:07;;;;;;;31.60;20.02;;;8.30;78.40;;;;;;5065564;28;20047;-82
2022/11/15 02:21:50;;;;;;;29.60;19.30;;;8.30;78.50;;;;;;5093221;28;20109;-83
2022/11/15 02:24:34;;;;;;;31.50;20.85;;;8.30;78.60;;;;;;5079009;28;20521;-83
2022/11/15 02:27:37;;;;;;;28.30;19.35;;;8.30;78.60;;;;;;5095947;28;20036;-83
2022/11/15 02:30:29;;;;;;;29.05;19.08;;;8.30;78.60;;;;;;5096109;28;20036;-83
2022/11/15 02:32:57;;;;;;;35.28;21.33;;;8.30;78.60;;;;;;5075568;28;20041;-83
2022/11/15 02:35:50;;;;;;;29.15;19.00;;;8.30;78.70;;;;;;5059168;28;20040;-83
2022/11/15 02:38:15;;;;;;;35.33;21.23;;;8.30;78.90;;;;;;5075315;28;20044;-83
2022/11/15 02:40:59;;;;;;;38.35;21.55;;;8.30;78.90;;;;;;5075280;28;20045;-83
2022/11/15 02:47:12;;;;;;;36.58;20.67;;;8.30;79.10;;;;;;5095426;28;20185;-83
2022/11/15 02:49:11;;;;;;;37.72;20.92;;;8.30;79.20;;;;;;5095050;28;20055;-83
2022/11/15 02:51:38;;;;;;;41.22;22.60;;;8.30;79.30;;;;;;5095479;28;20036;-83
2022/11/15 02:54:03;;;;;;;43.72;24.48;;;8.40;79.50;;;;;;5058487;28;20417;-83
2022/11/15 02:56:29;;;;;;;40.35;22.83;;;8.30;79.60;;;;;;5075067;28;20129;-82
2022/11/15 02:59:18;;;;;;;43.83;24.30;;;8.40;80.30;;;;;;5086850;28;20040;-82
2022/11/15 03:02:12;;;;;;;43.58;24.05;;;8.40;80.10;;;;;;5075192;28;20051;-82
2022/11/15 03:04:40;;;;;;;37.40;22.60;;;8.40;80.20;;;;;;5077230;28;20048;-83
2022/11/15 03:07:41;;;;;;;38.55;21.85;;;8.40;80.20;;;;;;5078292;28;20130;-83
2022/11/15 03:10:18;;;;;;;38.38;22.05;;;8.40;80.40;;;;;;5084634;28;20048;-83
2022/11/15 03:12:54;;;;;;;39.15;21.77;;;8.40;80.50;;;;;;5078136;28;20046;-82
2022/11/15 03:15:29;;;;;;;44.05;23.08;;;8.40;80.60;;;;;;5078045;28;20043;-83
2022/11/15 03:18:03;;;;;;;44.63;24.05;;;8.50;80.80;;;;;;5094947;28;20058;-83
2022/11/15 03:20:30;;;;;;;35.85;22.70;;;8.40;80.90;;;;;;5094778;28;20036;-83
2022/11/15 03:23:03;;;;;;;45.58;25.73;;;8.50;80.90;;;;;;5077841;28;20047;-83
2022/11/15 03:25:31;;;;;;;46.38;24.40;;;8.50;81.10;;;;;;5094804;28;20093;-82
2022/11/15 03:28:02;;;;;;;43.65;24.15;;;8.50;81.10;;;;;;5094711;28;20044;-82
2022/11/15 03:30:30;;;;;;;44.50;24.17;;;8.50;81.20;;;;;;5094593;28;20128;-81
2022/11/15 03:32:58;;;;;;;51.70;25.50;;;8.60;81.40;;;;;;5092888;28;20559;-72
2022/11/15 03:35:27;;;;;;;42.17;23.30;;;8.60;81.50;;;;;;5076628;28;20446;-72
2022/11/15 03:38:15;;;;;;;48.53;25.30;;;8.60;81.60;;;;;;5077037;28;20047;-72
2022/11/15 03:41:15;;;;;;;42.42;23.35;;;8.60;81.90;;;;;;5100144;28;20036;-72
2022/11/15 03:43:53;;;;;;;42.70;24.17;;;8.60;81.80;;;;;;5076561;28;20039;-72
2022/11/15 03:46:33;;;;;;;42.20;23.45;;;8.60;82.00;;;;;;5075849;28;20036;-72
2022/11/15 03:49:19;;;;;;;48.90;24.65;;;8.70;82.20;;;;;;5076464;28;20088;-72
2022/11/15 03:51:45;;;;;;;45.97;25.90;;;8.70;82.20;;;;;;5085217;28;20102;-72
2022/11/15 03:54:12;;;;;;;43.97;24.92;;;8.70;82.30;;;;;;5092992;28;20035;-72
2022/11/15 03:56:38;;;;;;;52.15;26.73;;;8.80;82.50;;;;;;5076071;28;20042;-72
2022/11/15 03:59:03;;;;;;;49.03;25.48;;;8.70;82.50;;;;;;5076056;28;20032;-72
2022/11/15 04:01:29;;;;;;;45.45;23.95;;;8.70;82.50;;;;;;5076082;28;20040;-72
2022/11/15 04:03:55;;;;;;;50.92;25.80;;;8.70;82.60;;;;;;5092156;28;20040;-72
2022/11/15 04:06:20;;;;;;;47.72;25.92;;;8.70;82.70;;;;;;5059785;28;20040;-72
2022/11/15 04:08:46;;;;;;;50.90;27.85;;;8.70;82.90;;;;;;5072492;28;20036;-72
2022/11/15 04:11:11;;;;;;;46.60;26.10;;;8.70;82.90;;;;;;5093249;28;20031;-72
2022/11/15 04:13:37;;;;;;;48.90;26.75;;;8.70;83.00;;;;;;5075946;28;20036;-72
2022/11/15 04:16:03;;;;;;;46.38;26.13;;;8.80;83.20;;;;;;5077442;28;20045;-72
2022/11/15 04:18:28;;;;;;;52.30;28.15;;;8.80;83.30;;;;;;5073204;28;20052;-72
2022/11/15 04:26:23;;;;;;;62.13;29.33;;;8.90;83.70;;;;;;5089746;28;20128;-72
2022/11/15 04:31:33;;;;;;;63.53;31.77;;;8.90;83.90;;;;;;5090383;28;20048;-72
2022/11/15 04:33:59;;;;;;;66.15;32.90;;;8.90;84.00;;;;;;5074980;28;20475;-72
2022/11/15 04:39:09;;;;;;;71.47;32.60;;;9.00;84.20;;;;;;5085722;28;20070;-71
2022/11/15 04:41:35;;;;;;;73.38;33.33;;;9.00;84.30;;;;;;5092041;28;20036;-72
2022/11/15 04:44:00;;;;;;;67.53;32.47;;;9.10;84.40;;;;;;5070234;28;20048;-72
2022/11/15 04:46:26;;;;;;;71.65;33.65;;;9.10;84.60;;;;;;5054244;28;20129;-72
2022/11/15 04:48:53;;;;;;;76.32;34.63;;;9.10;84.60;;;;;;5090372;28;20051;-72
2022/11/15 04:51:19;;;;;;;71.05;35.20;;;9.20;84.70;;;;;;5074515;28;20048;-72
2022/11/15 04:53:45;;;;;;;67.07;33.85;;;9.30;84.90;;;;;;5092226;28;20126;-71
2022/11/15 04:56:11;;;;;;;71.75;33.17;;;9.20;84.90;;;;;;5092864;28;20448;-72
2022/11/15 04:58:36;;;;;;;69.38;34.90;;;9.30;85.10;;;;;;5074856;28;20399;-72
2022/11/15 05:01:14;;;;;;;77.10;35.33;;;9.30;85.10;;;;;;5092084;28;20048;-72
2022/11/15 05:06:28;;;;;;;77.30;35.50;;;9.40;85.40;;;;;;5086702;28;20395;-72
2022/11/15 05:08:55;;;;;;;78.03;36.42;;;9.40;85.40;;;;;;5074735;28;20043;-72
2022/11/15 05:11:20;;;;;;;75.72;36.15;;;9.50;85.50;;;;;;5075065;28;20067;-72
2022/11/15 05:13:46;;;;;;;77.38;37.55;;;9.50;85.50;;;;;;5089237;28;20086;-72
2022/11/15 05:16:12;;;;;;;77.82;36.60;;;9.50;85.60;;;;;;5074834;28;20032;-72
2022/11/15 05:18:41;;;;;;;73.00;35.55;;;9.60;85.70;;;;;;5091786;28;20534;-72
2022/11/15 05:21:12;;;;;;;74.40;36.88;;;9.60;85.70;;;;;;5090735;28;20039;-72
2022/11/15 05:23:38;;;;;;;76.45;36.47;;;9.60;85.90;;;;;;5073589;28;20135;-72
2022/11/15 05:26:05;;;;;;;68.63;35.05;;;9.60;85.80;;;;;;5074758;28;20123;-72
2022/11/15 05:28:32;;;;;;;70.35;35.22;;;9.70;85.90;;;;;;5074827;28;20036;-72
2022/11/15 05:31:02;;;;;;;67.28;34.45;;;9.70;86.00;;;;;;5087463;28;20046;-72
2022/11/15 05:33:28;;;;;;;69.78;35.10;;;9.70;86.00;;;;;;5091507;28;20032;-72
2022/11/15 05:36:20;;;;;;;68.22;35.03;;;9.70;86.00;;;;;;5075657;28;20039;-82
2022/11/15 05:38:48;;;;;;;69.40;35.63;;;9.80;86.20;;;;;;5081534;28;20511;-81
2022/11/15 05:41:14;;;;;;;63.42;34.00;;;9.80;86.20;;;;;;5075750;28;20373;-82
2022/11/15 05:43:41;;;;;;;68.78;34.20;;;9.80;86.10;;;;;;5075385;28;20032;-82
2022/11/15 05:46:07;;;;;;;66.22;35.17;;;9.80;86.20;;;;;;5075390;28;20044;-82
2022/11/15 05:48:35;;;;;;;63.33;33.05;;;9.90;86.20;;;;;;5075252;28;20052;-82
2022/11/15 05:51:03;;;;;;;68.72;35.45;;;9.90;86.30;;;;;;5092264;28;20122;-83
2022/11/15 05:53:30;;;;;;;69.90;36.17;;;9.90;86.30;;;;;;5092237;28;20536;-84
2022/11/15 05:55:56;;;;;;;66.47;33.83;;;9.90;86.30;;;;;;5091825;28;20063;-82
2022/11/15 05:58:22;;;;;;;73.05;35.50;;;10.00;86.40;;;;;;5075547;28;20075;-82
2022/11/15 06:00:48;;;;;;;68.75;37.13;;;10.00;86.40;;;;;;5092197;28;20081;-82
2022/11/15 06:03:14;;;;;;;64.53;34.28;;;10.00;86.40;;;;;;5092091;28;20040;-83
2022/11/15 06:05:40;;;;;;;72.72;35.80;;;10.00;86.40;;;;;;5091942;28;20399;-83
2022/11/15 06:08:06;;;;;;;63.15;33.08;;;10.10;86.50;;;;;;5092145;28;20039;-82
2022/11/15 06:10:32;;;;;;;68.00;34.17;;;10.10;86.50;;;;;;5091942;28;20036;-82
2022/11/15 06:12:59;;;;;;;62.58;32.53;;;10.10;86.60;;;;;;5075258;28;20387;-82
2022/11/15 06:15:25;;;;;;;63.50;33.58;;;10.20;86.70;;;;;;5075157;28;20182;-82
2022/11/15 06:17:51;;;;;;;65.70;34.20;;;10.20;86.70;;;;;;5092241;28;20036;-82
2022/11/15 06:20:17;;;;;;;68.97;35.05;;;10.20;86.60;;;;;;5075337;28;20368;-82
2022/11/15 06:22:43;;;;;;;63.65;32.70;;;10.20;86.60;;;;;;5092206;28;20130;-82
2022/11/15 06:25:09;;;;;;;64.57;34.55;;;10.30;86.70;;;;;;5091784;28;20479;-82
2022/11/15 06:27:34;;;;;;;57.55;32.22;;;10.30;86.70;;;;;;5091830;28;20411;-82
2022/11/15 06:30:00;;;;;;;63.17;33.85;;;10.30;86.70;;;;;;5091796;28;20040;-82
2022/11/15 06:32:25;;;;;;;64.35;32.40;;;10.30;86.70;;;;;;5075222;28;20040;-82
2022/11/15 06:34:51;;;;;;;61.28;33.72;;;10.30;86.70;;;;;;5091728;28;20127;-82
2022/11/15 06:37:17;;;;;;;58.38;31.88;;;10.40;86.90;;;;;;5092272;28;20036;-82
2022/11/15 06:39:42;;;;;;;57.95;30.23;;;10.40;86.90;;;;;;5091889;28;20044;-83
2022/11/15 06:42:08;;;;;;;58.08;33.15;;;10.40;86.90;;;;;;5075139;28;20494;-83
2022/11/15 06:44:34;;;;;;;57.78;32.15;;;10.40;87.00;;;;;;5075035;28;20040;-83
2022/11/15 06:47:00;;;;;;;49.10;29.67;;;10.50;86.90;;;;;;5091547;28;20403;-82
2022/11/15 06:49:25;;;;;;;61.33;31.52;;;10.50;86.90;;;;;;5074968;28;20040;-83
2022/11/15 06:51:51;;;;;;;54.47;31.20;;;10.50;86.90;;;;;;5091525;28;20036;-83
2022/11/15 06:54:17;;;;;;;53.95;32.15;;;10.50;87.40;;;;;;5091555;28;20032;-82
2022/11/15 06:56:42;;;;;;;54.08;30.48;;;10.50;86.90;;;;;;5091546;28;20428;-83
2022/11/15 06:59:08;;;;;;;51.70;30.52;;;10.50;86.90;;;;;;5074858;28;20044;-84
2022/11/15 07:01:34;;;;;;;54.75;30.30;;;10.60;87.00;;;;;;5091392;28;20039;-83
2022/11/15 07:03:59;;;;;;;51.50;30.83;;;10.60;87.00;;;;;;5091423;28;20036;-84
2022/11/15 07:06:25;;;;;;;49.08;30.27;;;10.60;86.90;;;;;;5074633;28;20044;-84
2022/11/15 07:08:51;;;;;;;52.78;29.63;;;10.60;86.90;;;;;;5076395;28;20082;-82
2022/11/15 07:11:16;;;;;;;47.55;30.83;;;10.70;87.00;;;;;;5078498;28;20040;-84
2022/11/15 07:13:42;;;;;;;47.58;29.10;;;10.70;87.00;;;;;;5095270;28;20059;-83
2022/11/15 07:16:10;;;;;;;51.22;29.85;;;10.70;87.00;;;;;;5094467;28;20048;-83
2022/11/15 07:18:40;;;;;;;47.75;30.10;;;10.70;87.00;;;;;;5094963;28;20047;-84
2022/11/15 07:21:08;;;;;;;51.38;30.63;;;10.70;87.00;;;;;;5095036;28;20399;-82
2022/11/15 07:23:37;;;;;;;48.67;28.63;;;10.70;87.00;;;;;;5078166;28;20504;-84
2022/11/15 07:26:02;;;;;;;43.50;28.67;;;10.80;87.10;;;;;;5094539;28;20073;-84
2022/11/15 07:28:28;;;;;;;45.72;29.55;;;10.80;87.00;;;;;;5077817;28;20032;-85
2022/11/15 07:30:54;;;;;;;46.10;29.30;;;10.80;87.00;;;;;;5094722;28;20044;-84
2022/11/15 07:33:20;;;;;;;45.03;28.35;;;10.80;87.00;;;;;;5076523;28;20036;-72
2022/11/15 07:35:49;;;;;;;43.15;27.98;;;10.80;87.00;;;;;;5060529;28;20039;-72
2022/11/15 07:38:15;;;;;;;47.30;28.73;;;10.80;87.00;;;;;;5077286;28;20051;-73
2022/11/15 07:40:41;;;;;;;44.92;27.98;;;10.90;87.40;;;;;;5093781;28;20050;-73
2022/11/15 07:43:08;;;;;;;42.90;26.85;;;10.90;87.00;;;;;;5093232;28;20043;-72
2022/11/15 07:45:39;;;;;;;44.10;28.42;;;10.90;87.10;;;;;;5093374;28;20423;-73
2022/11/15 07:48:05;;;;;;;44.83;27.25;;;10.90;87.00;;;;;;5060240;28;20182;-73
2022/11/15 07:50:31;;;;;;;42.67;27.77;;;10.90;87.00;;;;;;5057017;28;20403;-72
2022/11/15 07:52:58;;;;;;;42.85;27.50;;;10.90;87.00;;;;;;5090348;28;20036;-73
2022/11/15 07:55:25;;;;;;;44.15;28.27;;;10.90;86.90;;;;;;5093532;28;20037;-72
2022/11/15 07:57:51;;;;;;;41.40;27.60;;;11.00;86.90;;;;;;5076796;28;20145;-72
2022/11/15 08:00:17;;;;;;;39.08;27.90;;;10.90;86.90;;;;;;5093129;28;20071;-83
2022/11/15 08:02:43;;;;;;;37.78;25.73;;;11.00;86.90;;;;;;5094093;28;20086;-83
2022/11/15 08:05:09;;;;;;;45.65;27.58;;;11.00;86.90;;;;;;5077289;28;20064;-84
2022/11/15 08:07:34;;;;;;;44.45;28.33;;;11.00;86.90;;;;;;5094135;28;20040;-83
2022/11/15 08:10:01;;;;;;;37.88;25.45;;;11.00;86.90;;;;;;5094007;28;20105;-84
2022/11/15 08:12:29;;;;;;;41.50;27.13;;;11.00;87.20;;;;;;5077099;28;20071;-84
2022/11/15 08:14:56;;;;;;;36.67;25.50;;;11.10;86.90;;;;;;5093684;28;20091;-84
2022/11/15 08:17:23;;;;;;;38.80;26.90;;;11.10;86.90;;;;;;5094051;28;20147;-84
2022/11/15 08:19:48;;;;;;;36.67;26.42;;;11.10;86.80;;;;;;5077225;28;20113;-84
2022/11/15 08:22:14;;;;;;;37.90;26.33;;;11.10;86.80;;;;;;5094074;28;20475;-84
2022/11/15 08:24:40;;;;;;;35.20;24.63;;;11.20;86.90;;;;;;5093681;28;20040;-83
2022/11/15 08:27:14;;;;;;;36.78;25.95;;;11.20;87.30;;;;;;5076513;28;20093;-72
2022/11/15 08:29:41;;;;;;;40.50;27.05;;;11.30;87.40;;;;;;5088916;28;20535;-72
2022/11/15 08:32:07;;;;;;;36.00;25.42;;;11.20;86.90;;;;;;5092574;28;20032;-72
2022/11/15 08:34:33;;;;;;;39.00;25.50;;;11.20;86.90;;;;;;5091470;28;20032;-72
2022/11/15 08:36:58;;;;;;;33.35;24.67;;;11.20;86.90;;;;;;5092831;28;20035;-83
2022/11/15 08:39:24;;;;;;;36.58;26.40;;;11.30;86.90;;;;;;5092925;28;20036;-72
2022/11/15 08:41:49;;;;;;;34.88;24.83;;;11.30;86.80;;;;;;5076080;28;20035;-73
2022/11/15 08:44:15;;;;;;;38.53;25.98;;;11.30;86.80;;;;;;5055909;28;20044;-83
2022/11/15 08:46:41;;;;;;;34.83;25.92;;;11.30;86.70;;;;;;5075507;28;20562;-72
2022/11/15 08:49:07;;;;;;;36.58;25.17;;;11.30;86.70;;;;;;5078481;28;20434;-84
2022/11/15 08:51:32;;;;;;;35.65;24.92;;;11.40;86.80;;;;;;5081463;28;20039;-73
2022/11/15 08:53:58;;;;;;;35.50;24.42;;;11.40;86.80;;;;;;5085891;28;20039;-72
2022/11/15 08:56:23;;;;;;;37.58;25.52;;;11.40;86.80;;;;;;5098896;28;20032;-84
2022/11/15 08:58:49;;;;;;;34.20;24.27;;;11.40;86.80;;;;;;5084419;28;20038;-72
2022/11/15 09:01:19;;;;;;;37.47;24.45;;;11.40;86.80;;;;;;5080962;28;20042;-72
2022/11/15 09:03:44;;;;;;;33.35;23.90;;;11.50;86.70;;;;;;5102078;28;20341;-73
2022/11/15 09:06:10;;;;;;;33.17;23.55;;;11.50;86.70;;;;;;5086129;28;20066;-73
2022/11/15 09:08:36;;;;;;;36.35;25.55;;;11.50;86.80;;;;;;5084488;28;20399;-84
2022/11/15 09:11:09;;;;;;;36.65;23.85;;;11.50;86.70;;;;;;5079652;28;20399;-84
2022/11/15 09:13:39;;;;;;;34.40;23.40;;;11.60;87.00;;;;;;5082350;28;20093;-73
2022/11/15 09:16:05;;;;;;;35.30;24.52;;;11.60;86.90;;;;;;5101965;28;20046;-72
2022/11/15 09:18:31;;;;;;;35.03;24.30;;;11.60;86.90;;;;;;5084364;28;20114;-84
2022/11/15 09:20:58;;;;;;;29.25;23.40;;;11.60;86.90;;;;;;5078482;28;20036;-84
2022/11/15 09:23:24;;;;;;;30.88;23.48;;;11.60;86.90;;;;;;5065670;28;20052;-84
2022/11/15 09:25:51;;;;;;;38.95;25.67;;;11.70;87.00;;;;;;5099803;28;20122;-73
2022/11/15 09:28:16;;;;;;;32.38;24.20;;;11.70;86.90;;;;;;5104576;28;20126;-73
2022/11/15 09:30:42;;;;;;;36.80;24.98;;;11.70;86.90;;;;;;5082395;28;20462;-73
2022/11/15 09:33:12;;;;;;;34.42;23.65;;;11.80;86.90;;;;;;5069397;28;20140;-73
2022/11/15 09:35:38;;;;;;;32.78;23.35;;;11.80;86.90;;;;;;5102857;28;20057;-73
2022/11/15 09:38:04;;;;;;;29.27;21.73;;;11.80;87.10;;;;;;5078336;28;20040;-73
2022/11/15 09:40:37;;;;;;;33.60;22.77;;;11.80;86.60;;;;;;5073919;28;20089;-72
2022/11/15 09:43:43;;;;;;;30.10;21.83;;;11.90;86.70;;;;;;5075765;28;20394;-83
2022/11/15 09:46:39;;;;;;;29.23;21.10;;;11.90;86.50;;;;;;5088844;28;20045;-84
2022/11/15 09:49:07;;;;;;;29.42;21.75;;;11.90;86.40;;;;;;5084315;28;20396;-84
2022/11/15 09:51:49;;;;;;;28.25;20.42;;;11.90;86.40;;;;;;5092175;28;20047;-83
2022/11/15 09:54:34;;;;;;;29.17;21.63;;;11.90;86.40;;;;;;5055361;28;20449;-72
2022/11/15 09:57:10;;;;;;;29.25;21.60;;;11.90;86.40;;;;;;5097735;28;20391;-73
2022/11/15 09:59:39;;;;;;;27.98;19.70;;;12.00;86.40;;;;;;5074559;28;20040;-72
2022/11/15 10:02:04;;;;;;;26.30;20.05;;;12.00;86.30;;;;;;5080017;28;20043;-73
2022/11/15 10:04:31;;;;;;;24.60;18.33;;;12.00;86.40;;;;;;5086934;28;20028;-84
2022/11/15 10:07:18;;;;;;;25.48;19.27;;;12.00;86.30;;;;;;5074627;28;20040;-84
2022/11/15 10:10:01;;;;;;;24.30;18.58;;;12.00;86.20;;;;;;5071122;28;20067;-72
2022/11/15 10:12:28;;;;;;;22.75;18.20;;;12.00;86.20;;;;;;5074544;28;20388;-73
2022/11/15 10:15:12;;;;;;;22.42;17.42;;;12.00;86.10;;;;;;5090977;28;20036;-73
2022/11/15 10:17:50;;;;;;;22.58;17.52;;;12.10;86.10;;;;;;5099596;28;20032;-83
2022/11/15 10:20:35;;;;;;;22.13;17.25;;;12.10;85.90;;;;;;5090852;28;20135;-73
2022/11/15 10:23:06;;;;;;;20.00;17.17;;;12.10;85.90;;;;;;5091177;28;20044;-73
2022/11/15 10:25:34;;;;;;;20.10;16.67;;;12.10;85.80;;;;;;5090646;28;20093;-72
2022/11/15 10:28:20;;;;;;;21.67;16.33;;;12.20;85.80;;;;;;5074084;28;20123;-84
2022/11/15 10:30:48;;;;;;;20.73;16.95;;;12.20;85.70;;;;;;5091331;28;20051;-72
2022/11/15 10:33:19;;;;;;;20.58;15.88;;;12.20;85.80;;;;;;5092047;28;20039;-83
2022/11/15 10:35:45;;;;;;;17.48;14.98;;;12.20;85.80;;;;;;5091901;28;20058;-73
2022/11/15 10:38:12;;;;;;;20.25;16.10;;;12.30;85.70;;;;;;5091463;28;20481;-72
2022/11/15 10:40:39;;;;;;;19.05;15.18;;;12.30;85.70;;;;;;5074790;28;20506;-85
2022/11/15 10:43:14;;;;;;;17.10;13.30;;;12.30;85.80;;;;;;5074925;28;20123;-84
2022/11/15 10:45:40;;;;;;;19.98;14.85;;;12.40;85.90;;;;;;5069820;28;20052;-85
2022/11/15 10:48:12;;;;;;;19.70;14.10;;;12.40;85.80;;;;;;5078619;28;20052;-83
2022/11/15 10:50:39;;;;;;;13.82;12.30;;;12.40;85.80;;;;;;5078529;28;20036;-85
2022/11/15 10:53:28;;;;;;;12.63;11.25;;;12.40;85.50;;;;;;5095646;28;20109;-84
2022/11/15 10:55:57;;;;;;;14.85;10.55;;;12.50;85.30;;;;;;5078660;28;20439;-84
2022/11/15 10:58:54;;;;;;;13.60;9.63;;;12.50;85.00;;;;;;5078173;28;20046;-72
2022/11/15 11:01:23;;;;;;;12.55;10.00;;;12.50;84.60;;;;;;5094023;28;20039;-72
2022/11/15 11:04:21;;;;;;;16.35;10.30;;;12.50;84.20;;;;;;5094475;28;20368;-72
2022/11/15 11:06:57;;;;;;;12.65;9.98;;;12.50;83.90;;;;;;5060894;28;20106;-73
2022/11/15 11:09:32;;;;;;;11.60;9.25;;;12.50;83.80;;;;;;5089951;28;20040;-72
2022/11/15 11:11:59;;;;;;;11.15;8.77;;;12.50;83.50;;;;;;5092865;28;20043;-72
2022/11/15 11:14:30;;;;;;;11.65;8.15;;;12.60;83.40;;;;;;5077500;28;20048;-72
2022/11/15 11:17:03;;;;;;;8.77;7.38;;;12.60;83.00;;;;;;5095224;28;20040;-85
2022/11/15 11:20:23;;;;;;;9.50;7.60;;;12.60;82.60;;;;;;5094065;28;20039;-84
2022/11/15 11:22:55;;;;;;;11.15;6.88;;;12.60;82.00;;;;;;5059403;28;20124;-72
2022/11/15 11:25:35;;;;;;;10.18;6.22;;;12.60;82.00;;;;;;5082689;28;20159;-72
2022/11/15 11:28:24;;;;;;;7.95;6.20;;;12.60;81.60;;;;;;5077119;28;20043;-84
2022/11/15 11:31:17;;;;;;;10.30;6.07;;;12.60;80.90;;;;;;5089034;28;20044;-83
2022/11/15 11:33:55;;;;;;;9.10;5.90;;;12.70;80.80;;;;;;5094687;28;20040;-80
2022/11/15 11:36:34;;;;;;;9.45;6.35;;;12.70;80.40;;;;;;5092234;28;20036;-83
2022/11/15 11:39:39;;;;;;;9.52;5.97;;;12.70;80.10;;;;;;5094586;28;20182;-83
2022/11/15 11:42:26;;;;;;;12.90;7.23;;;12.70;79.90;;;;;;5077578;28;20044;-83
2022/11/15 11:44:57;;;;;;;8.93;6.15;;;12.70;80.00;;;;;;5088857;28;20040;-83
2022/11/15 11:47:28;;;;;;;7.70;6.03;;;12.70;80.00;;;;;;5077399;28;20108;-83
2022/11/15 11:49:56;;;;;;;8.35;5.60;;;12.70;80.00;;;;;;5093875;28;20169;-71
2022/11/15 11:52:26;;;;;;;8.90;5.82;;;12.70;80.40;;;;;;5093037;28;20042;-72
2022/11/15 11:55:01;;;;;;;8.05;4.82;;;12.70;79.90;;;;;;5090134;28;20133;-71
2022/11/15 11:57:34;;;;;;;;;;;12.80;79.70;;;;;;5092507;28;20410;-71
2022/11/15 12:00:21;;;;;;;5.97;4.32;;;12.80;79.10;;;;;;5074477;28;19919;-71
2022/11/15 12:03:13;;;;;;;12.45;6.07;;;12.80;79.00;;;;;;5074754;28;20046;-71
2022/11/15 12:05:44;;;;;;;10.05;5.43;;;12.80;77.80;;;;;;5092177;28;20039;-71
2022/11/15 12:08:41;;;;;;;8.55;5.70;;;12.90;78.20;;;;;;5099189;28;20032;-71
2022/11/15 12:11:45;;;;;;;6.53;5.05;;;12.90;77.60;;;;;;5091662;28;20567;-72
2022/11/15 12:14:35;;;;;;;8.27;4.80;;;12.90;77.80;;;;;;5097649;28;20519;-72
2022/11/15 12:17:01;;;;;;;6.20;4.85;;;12.90;77.80;;;;;;5092203;28;20024;-72
2022/11/15 12:19:28;;;;;;;8.57;4.75;;;13.00;78.00;;;;;;5048001;28;20146;-72
2022/11/15 12:22:10;;;;;;;6.70;4.07;;;13.00;77.90;;;;;;5091976;28;20157;-72
2022/11/15 12:24:48;;;;;;;7.82;3.75;;;13.00;77.40;;;;;;5092165;28;20511;-72
2022/11/15 12:27:38;;;;;;;6.32;4.35;;;13.00;76.80;;;;;;5091538;28;20039;-72
2022/11/15 12:30:18;;;;;;;6.00;4.18;;;13.00;76.60;;;;;;5092152;28;20036;-72
2022/11/15 12:33:30;;;;;;;7.32;3.55;;;13.10;76.30;;;;;;5090089;28;20467;-72
2022/11/15 12:36:24;;;;;;;5.72;3.83;;;13.10;75.50;;;;;;5068410;28;20048;-72
2022/11/15 12:39:03;;;;;;;5.53;3.53;;;13.10;75.80;;;;;;5065675;28;20043;-72
2022/11/15 12:41:55;;;;;;;5.65;3.13;;;13.10;75.90;;;;;;5098974;28;20093;-72
2022/11/15 12:44:30;;;;;;;5.28;3.17;;;13.10;75.60;;;;;;5089038;28;20368;-73
2022/11/15 12:46:55;;;;;;;5.93;3.45;;;13.10;75.90;;;;;;5091865;28;20168;-73
2022/11/15 12:49:27;;;;;;;5.13;3.40;;;13.10;76.10;;;;;;5091650;28;20051;-73
2022/11/15 12:51:58;;;;;;;8.15;3.50;;;13.10;76.00;;;;;;5074840;28;20196;-73
2022/11/15 12:54:24;;;;;;;4.35;2.55;;;13.10;75.70;;;;;;5091729;28;20036;-73
2022/11/15 12:57:08;;;;;;;4.10;2.90;;;13.10;75.50;;;;;;5091608;28;20372;-73
2022/11/15 12:59:53;;;;;;;4.28;2.70;;;13.10;75.10;;;;;;5074603;28;20032;-73
2022/11/15 13:02:29;;;;;;;5.22;2.60;;;13.10;74.80;;;;;;5088876;28;20040;-72
2022/11/15 13:05:15;;;;;;;5.13;2.63;;;13.10;74.10;;;;;;5092332;28;20123;-84
2022/11/15 13:07:41;;;;;;;3.58;2.28;;;13.10;74.00;;;;;;5075448;28;20036;-85
2022/11/15 13:10:09;;;;;;;4.30;2.33;;;13.10;74.20;;;;;;5092439;28;20387;-85